createdAt,value
2022-10-22T00:02:38.060Z,100725.03
2022-10-22T00:07:42.560Z,100721.41
2022-10-22T00:12:46.511Z,100727.44
2022-10-22T00:17:51.880Z,100741.91
2022-10-22T00:22:55.630Z,100754.84
2022-10-22T00:27:59.358Z,100749.50
2022-10-22T00:33:04.621Z,100757.09
2022-10-22T00:38:08.283Z,100752.56
2022-10-22T00:43:12.612Z,100753.50
2022-10-22T00:48:21.805Z,100755.06
2022-10-22T00:53:30.908Z,100755.84
2022-10-22T00:58:37.455Z,100759.25
2022-10-22T01:03:42.502Z,100767.62
2022-10-22T01:08:55.767Z,100770.38
2022-10-22T01:14:11.103Z,100765.09
2022-10-22T01:19:40.808Z,100770.16
2022-10-22T01:24:57.204Z,100766.69
2022-10-22T01:30:05.766Z,100767.12
2022-10-22T01:35:12.676Z,100768.87
2022-10-22T01:40:17.220Z,100763.69
2022-10-22T01:45:22.332Z,100767.94
2022-10-22T01:50:58.248Z,100758.47
2022-10-22T01:56:17.859Z,100769.00
2022-10-22T02:01:32.394Z,100762.94
2022-10-22T02:06:38.393Z,100764.69
2022-10-22T02:11:43.185Z,100770.81
2022-10-22T02:16:50.687Z,100770.94
2022-10-22T02:21:55.584Z,100761.47
2022-10-22T02:27:08.295Z,100757.16
2022-10-22T02:32:19.216Z,100761.63
2022-10-22T02:37:23.923Z,100775.50
2022-10-22T02:42:29.364Z,100770.41
2022-10-22T02:47:34.385Z,100765.22
2022-10-22T02:52:38.605Z,100769.63
2022-10-22T02:57:42.830Z,100772.09
2022-10-22T03:02:48.259Z,100774.72
2022-10-22T03:07:51.923Z,100775.50
2022-10-22T03:12:56.085Z,100783.22
2022-10-22T03:18:01.197Z,100789.28
2022-10-22T03:23:04.970Z,100783.97
2022-10-22T03:28:11.919Z,100783.09
2022-10-22T03:33:16.915Z,100785.59
2022-10-22T03:38:20.727Z,100789.87
2022-10-22T03:43:24.454Z,100802.87
2022-10-22T03:48:29.450Z,100808.94
2022-10-22T03:53:33.134Z,100802.72
2022-10-22T03:58:36.916Z,100808.72
2022-10-22T04:03:41.984Z,100818.19
2022-10-22T04:08:46.927Z,100825.09
2022-10-22T04:13:50.659Z,100811.19
2022-10-22T04:18:55.708Z,100811.00
2022-10-22T04:23:59.441Z,100819.59
2022-10-22T04:29:03.169Z,100821.28
2022-10-22T04:34:08.200Z,100834.34
2022-10-22T04:39:11.862Z,100842.06
2022-10-22T04:44:17.028Z,100832.53
2022-10-22T04:49:23.601Z,100826.47
2022-10-22T04:54:30.505Z,100826.47
2022-10-22T04:59:36.716Z,100834.34
2022-10-22T05:04:44.638Z,100837.72
2022-10-22T05:09:48.310Z,100838.69
2022-10-22T05:14:51.982Z,100847.41
2022-10-22T05:19:57.003Z,100847.25
2022-10-22T05:25:00.624Z,100854.28
2022-10-22T05:30:04.774Z,100856.00
2022-10-22T05:35:10.480Z,100856.09
2022-10-22T05:40:26.601Z,100857.78
2022-10-22T05:45:37.764Z,100863.87
2022-10-22T05:50:42.754Z,100867.25
2022-10-22T05:55:46.574Z,100872.22
2022-10-22T06:00:50.296Z,100870.50
2022-10-22T06:05:55.334Z,100878.22
2022-10-22T06:10:59.214Z,100891.94
2022-10-22T06:16:02.902Z,100887.41
2022-10-22T06:21:10.080Z,100897.56
2022-10-22T06:26:13.776Z,100905.38
2022-10-22T06:31:17.663Z,100908.75
2022-10-22T06:36:25.370Z,100919.72
2022-10-22T06:41:29.777Z,100925.06
2022-10-22T06:46:33.639Z,100933.66
2022-10-22T06:51:38.686Z,100945.03
2022-10-22T06:56:42.876Z,100956.28
2022-10-22T07:01:46.758Z,100961.47
2022-10-22T07:06:52.069Z,100964.44
2022-10-22T07:11:55.737Z,100960.66
2022-10-22T07:16:59.428Z,100966.34
2022-10-22T07:22:04.532Z,100968.56
2022-10-22T07:27:11.060Z,100978.56
2022-10-22T07:32:15.564Z,100982.25
2022-10-22T07:37:22.062Z,100988.38
2022-10-22T07:42:25.910Z,100987.59
2022-10-22T07:47:29.679Z,100993.72
2022-10-22T07:52:34.850Z,100999.81
2022-10-22T07:57:38.677Z,101004.22
2022-10-22T08:02:43.022Z,101015.00
2022-10-22T08:07:48.311Z,101018.00
2022-10-22T08:12:51.988Z,101025.28
2022-10-22T08:17:55.801Z,101040.50
2022-10-22T08:23:00.968Z,101052.81
2022-10-22T08:28:04.859Z,101063.50
2022-10-22T08:33:08.544Z,101061.34
2022-10-22T08:38:13.628Z,101068.44
2022-10-22T08:43:37.876Z,101078.38
2022-10-22T08:48:45.670Z,101080.87
2022-10-22T08:54:13.497Z,101097.59
2022-10-22T08:59:24.238Z,101103.72
2022-10-22T09:04:32.108Z,101099.91
2022-10-22T09:09:43.343Z,101099.06
2022-10-22T09:14:47.102Z,101112.09
2022-10-22T09:20:01.967Z,101114.63
2022-10-22T09:25:20.128Z,101121.91
2022-10-22T09:30:25.379Z,101134.94
2022-10-22T09:35:29.576Z,101141.25
2022-10-22T09:40:44.459Z,101150.06
2022-10-22T09:45:49.706Z,101154.91
2022-10-22T09:50:58.404Z,101165.78
2022-10-22T09:56:10.032Z,101170.53
2022-10-22T10:01:19.531Z,101170.28
2022-10-22T10:06:24.596Z,101173.56
2022-10-22T10:11:33.444Z,101174.19
2022-10-22T10:16:56.724Z,101187.28
2022-10-22T10:22:11.953Z,101188.47
2022-10-22T10:27:26.006Z,101191.19
2022-10-22T10:32:48.198Z,101190.56
2022-10-22T10:38:04.653Z,101198.16
2022-10-22T10:43:14.566Z,101205.03
2022-10-22T10:48:33.350Z,101216.50
2022-10-22T10:53:56.064Z,101214.91
2022-10-22T10:59:13.573Z,101231.22
2022-10-22T11:04:35.187Z,101222.31
2022-10-22T11:09:44.732Z,101210.66
2022-10-22T11:14:59.519Z,101213.06
2022-10-22T11:20:13.386Z,101216.63
2022-10-22T11:25:22.839Z,101209.47
2022-10-22T11:30:33.020Z,101207.25
2022-10-22T11:35:41.329Z,101218.03
2022-10-22T11:40:48.409Z,101206.47
2022-10-22T11:46:01.839Z,101211.47
2022-10-22T11:51:26.598Z,101209.50
2022-10-22T11:56:38.577Z,101215.75
2022-10-22T12:01:44.253Z,101205.25
2022-10-22T12:06:57.081Z,101204.50
2022-10-22T12:12:15.614Z,101217.00
2022-10-22T12:17:22.801Z,101222.84
2022-10-22T12:22:29.396Z,101232.41
2022-10-22T12:27:37.319Z,101228.09
2022-10-22T12:32:42.461Z,101217.47
2022-10-22T12:37:46.606Z,101222.84
2022-10-22T12:42:54.996Z,101220.41
2022-10-22T12:48:02.330Z,101215.78
2022-10-22T12:53:07.121Z,101217.13
2022-10-22T12:58:17.399Z,101222.91
2022-10-22T13:03:29.433Z,101224.78
2022-10-22T13:08:35.401Z,101228.25
2022-10-22T13:13:45.538Z,101229.50
2022-10-22T13:18:51.243Z,101214.75
2022-10-22T13:23:57.645Z,101215.81
2022-10-22T13:29:02.324Z,101206.63
2022-10-22T13:34:11.796Z,101217.91
2022-10-22T13:39:19.079Z,101218.78
2022-10-22T13:44:22.729Z,101213.56
2022-10-22T13:49:27.717Z,101206.16
2022-10-22T13:54:31.475Z,101210.16
2022-10-22T13:59:35.100Z,101215.69
2022-10-22T14:04:41.981Z,101215.22
2022-10-22T14:09:45.644Z,101220.78
2022-10-22T14:14:49.327Z,101230.47
2022-10-22T14:19:54.599Z,101227.09
2022-10-22T14:24:58.467Z,101225.53
2022-10-22T14:30:02.178Z,101238.13
2022-10-22T14:35:07.964Z,101227.44
2022-10-22T14:40:14.919Z,101228.38
2022-10-22T14:45:20.994Z,101238.47
2022-10-22T14:50:26.402Z,101236.38
2022-10-22T14:55:30.107Z,101242.66
2022-10-22T15:00:34.463Z,101247.97
2022-10-22T15:05:44.441Z,101259.59
2022-10-22T15:10:57.926Z,101251.94
2022-10-22T15:16:01.978Z,101264.63
2022-10-22T15:21:09.129Z,101260.84
2022-10-22T15:26:13.724Z,101257.34
2022-10-22T15:31:18.203Z,101258.19
2022-10-22T15:36:23.225Z,101249.38
2022-10-22T15:41:27.032Z,101253.59
2022-10-22T15:46:34.674Z,101249.12
2022-10-22T15:51:40.675Z,101252.59
2022-10-22T15:56:44.571Z,101260.31
2022-10-22T16:01:48.685Z,101263.69
2022-10-22T16:06:54.702Z,101262.59
2022-10-22T16:11:58.372Z,101261.53
2022-10-22T16:17:02.119Z,101259.50
2022-10-22T16:22:10.072Z,101265.34
2022-10-22T16:27:13.621Z,101257.22
2022-10-22T16:32:18.110Z,101259.31
2022-10-22T16:37:23.248Z,101261.75
2022-10-22T16:42:26.953Z,101265.81
2022-10-22T16:47:30.956Z,101264.63
2022-10-22T16:52:36.465Z,101264.19
2022-10-22T16:57:40.468Z,101272.59
2022-10-22T17:02:44.570Z,101269.75
2022-10-22T17:07:50.414Z,101280.78
2022-10-22T17:12:54.373Z,101292.75
2022-10-22T17:18:00.808Z,101288.81
2022-10-22T17:23:05.939Z,101289.41
2022-10-22T17:28:10.167Z,101295.19
2022-10-22T17:33:13.953Z,101297.53
2022-10-22T17:38:18.993Z,101297.19
2022-10-22T17:43:22.704Z,101291.75
2022-10-22T17:48:26.516Z,101287.97
2022-10-22T17:53:31.888Z,101299.13
2022-10-22T17:58:35.649Z,101299.75
2022-10-22T18:03:39.362Z,101300.31
2022-10-22T18:08:44.689Z,101304.50
2022-10-22T18:13:50.491Z,101315.50
2022-10-22T18:18:56.568Z,101316.94
2022-10-22T18:24:01.683Z,101319.47
2022-10-22T18:29:05.532Z,101319.47
2022-10-22T18:34:09.218Z,101327.12
2022-10-22T18:39:16.100Z,101325.31
2022-10-22T18:44:19.844Z,101327.84
2022-10-22T18:49:23.611Z,101322.50
2022-10-22T18:54:28.813Z,101325.03
2022-10-22T18:59:32.483Z,101304.69
2022-10-22T19:04:37.520Z,101314.06
2022-10-22T19:09:43.868Z,101298.19
2022-10-22T19:14:48.780Z,101290.22
2022-10-22T19:19:52.517Z,101290.09
2022-10-22T19:24:58.882Z,101289.06
2022-10-22T19:30:02.564Z,101296.56
2022-10-22T19:35:06.734Z,101305.78
2022-10-22T19:40:13.198Z,101293.41
2022-10-22T19:45:18.283Z,101285.66
2022-10-22T19:50:21.976Z,101282.03
2022-10-22T19:55:27.160Z,101286.06
2022-10-22T20:00:32.148Z,101298.09
2022-10-22T20:05:39.268Z,101289.19
2022-10-22T20:10:44.525Z,101289.75
2022-10-22T20:15:49.548Z,101295.53
2022-10-22T20:20:53.307Z,101300.63
2022-10-22T20:25:58.304Z,101296.06
2022-10-22T20:31:02.087Z,101296.06
2022-10-22T20:36:08.725Z,101296.06
2022-10-22T20:41:16.194Z,101300.56
2022-10-22T20:46:23.098Z,101307.44
2022-10-22T20:51:27.129Z,101310.81
2022-10-22T20:56:33.148Z,101307.31
2022-10-22T21:01:39.612Z,101308.22
2022-10-22T21:06:43.595Z,101319.28
2022-10-22T21:11:48.749Z,101318.22
2022-10-22T21:16:53.186Z,101314.69
2022-10-22T21:21:56.833Z,101324.97
2022-10-22T21:27:02.685Z,101316.13
2022-10-22T21:32:06.636Z,101318.56
2022-10-22T21:37:10.404Z,101321.94
2022-10-22T21:42:17.103Z,101316.56
2022-10-22T21:47:20.791Z,101317.38
2022-10-22T21:52:24.670Z,101321.75
2022-10-22T21:57:29.765Z,101323.41
2022-10-22T22:02:33.528Z,101317.34
2022-10-22T22:07:37.286Z,101313.06
2022-10-22T22:12:42.520Z,101314.84
2022-10-22T22:17:47.685Z,101307.03
2022-10-22T22:22:51.361Z,101287.84
2022-10-22T22:27:56.417Z,101293.84
2022-10-22T22:33:00.123Z,101292.09
2022-10-22T22:38:04.162Z,101297.81
2022-10-22T22:43:09.660Z,101300.44
2022-10-22T22:48:13.372Z,101291.63
2022-10-22T22:53:17.036Z,101279.41
2022-10-22T22:58:22.093Z,101279.41
2022-10-22T23:03:25.817Z,101286.09
2022-10-22T23:08:29.507Z,101298.00
2022-10-22T23:13:35.259Z,101283.78
2022-10-22T23:18:38.948Z,101271.44
2022-10-22T23:23:44.664Z,101260.87
2022-10-22T23:28:50.156Z,101262.47
2022-10-22T23:33:53.867Z,101254.56
2022-10-22T23:38:57.884Z,101245.88
2022-10-22T23:44:03.384Z,101241.56
2022-10-22T23:49:08.531Z,101236.31
2022-10-22T23:54:14.477Z,101244.00
2022-10-22T23:59:19.522Z,101234.50
